Melvin Village, New Hampshire
Current Conditions -  °F | °C
As of 12:35 AM on Wednesday 22 Oct 2014 (Local Time) from KLCI Reporting Station
Overcast Overcast  
Wind Chill: 41°   Ceiling: 1600
Heat Index: 46°   Visibility: 3mi
Dew Point: 43°   Wind: 12mph
Humidity: 87%   Direction: 70°ENE
Pressure: 30.05"   Gusts: NA
Location:  43.69°N, 71.3°W
Report Text: KLCI 220435Z AUTO 07010KT 3SM FEW010 BKN016 OVC021 08/06 A3005 RMK AO1 P0001
Loading
Personal Weather Stations






























Interactive Weather Map
Tropical Storm Tracking
New forecast layout! Learn more

10-Day Weather Forecast

Advertisements
Track Severe Weather on mobile